TOURFACTS.DK  
Stats and Facts from Tour de France.

Tour de France 2019 starts in 323 days
  Riders   Stages   Teams   Summits   Yearly  


 
Search by year

After 2018 - Stage 21:
 15000 starters.
  5165 different riders.
  638 teams.
  2253 stages.
  456 restdays.
  442940.60 km.
  5684 abandonnees.


Top 3
GC
Geraint Thomas83:17:13
Tom Dumoulin83:19:04
Christopher Froome83:19:37
Climb
Julian Alaphilippe170 pt.
Warren Barguil91 pt.
Rafal Majka76 pt.
Sprint
Peter Sagan477 pt.
Alexander Kristoff246 pt.
Arnaud Démare203 pt.
Youth
Pierre-Roger Latou..83:39:26
Egan Bernal83:45:05
Guillaume Martin84:01:31
Facts from Tour de France 1949
  |   Stages.  |   Stage winners.  |   Days in yellow  |   Average speed.  |   Route.  |   Teams.  |   All riders.  |   Rookies.  |  

  |   Withdrawls.  |   GC.  |   Polka  |   Green  |   White  |   Summits. (In tour)  |   Miscellaneous.  |  

Stage 13 on 14 - 07 - 1949
         Owning:    Vittorio Magni    
Pick a stage:  1 2 3 4 5 6 7 8 9 10 11 12 13 14 15 16 17 18 19 20 21
  ToulouseNîmes | Dist: 289.00 km.

Average speed for all riders in stage:  33,725 km./hr.
    Place:Name:Team:Time:Km/h:
1
FRAEmile IdéeFRAIle De France08:29:04  +  00:00:00=34,062 
2
BELRoger LambrechtBELBelgium08:29:04  +  00:00:00=34,062 
3
BELMarcel DupontBELAiglons Belges08:29:04  +  00:00:00=34,062 
44 ITAGiuseppe AusendaITACadetti Italiens08:29:04  +  00:00:00=34,062 
55 FRALucien TeisseireFRAFrance08:29:04  +  00:00:00=34,062 
66 FRAEdouard MullerFRAIle De France08:30:48  +  00:01:44=33,947 
77 LUXJean DiederichLUXLuxembourg08:33:20  +  00:04:16=33,779 
88 SUIFerdi KüblerCHESwitzerland08:33:20  +  00:04:16=33,779 
99 BELRik Van SteenbergenBELBelgium08:33:20  +  00:04:16=33,779 
1010 BELStan OckersBELBelgium08:33:20  +  00:04:16=33,779 
1111 MARCustodio Dos ReisFRACenter-South West08:33:20  +  00:04:16=33,779 
1212 FRAAndré BruléFRAIle De France08:33:20  +  00:04:16=33,779 
1313 FRARoger LevequeFRACenter-South West08:33:20  +  00:04:16=33,779 
1414 SUIGeorges AeschlimannCHESwitzerland08:33:20  +  00:04:16=33,779 
1515 ITAÉdouard FachleitnerFRASouth-East08:33:20  +  00:04:16=33,779 
1616 BELJoseph VerhaertBELAiglons Belges08:33:20  +  00:04:16=33,779 
1717 FRAPaul GiguetFRASouth-East08:33:20  +  00:04:16=33,779 
1818 BELMarcel HendrickxBELAiglons Belges08:33:20  +  00:04:16=33,779 
1919 BELJacques GeusBELAiglons Belges08:33:20  +  00:04:16=33,779 
2020 ITANello LaurediFRASouth-East08:33:20  +  00:04:16=33,779 
2121 FRAGeorges MartinFRASouth-East08:33:20  +  00:04:16=33,779 
2222 BELMarcel De MulderBELAiglons Belges08:33:20  +  00:04:16=33,779 
2323 ITAAdolphe DeleddaFRASouth-East08:33:20  +  00:04:16=33,779 
2424 ITAFermo CamelliniFRASouth-East08:33:20  +  00:04:16=33,779 
2525 FRAJacques MarinelliFRAIle De France08:33:20  +  00:04:16=33,779 
2626 FRAAlbert DolhatsFRACenter-South West08:33:20  +  00:04:16=33,779 
2727 FRAJean RobicFRAWest-North08:33:20  +  00:04:16=33,779 
2828 FRAHenri MassalFRACenter-South West08:33:20  +  00:04:16=33,779 
2929 FRAAntonin RollandFRASouth-East08:33:20  +  00:04:16=33,779 
3030 FRAAndre MahéFRAWest-North08:33:20  +  00:04:16=33,779 
3131 FRAJean-Marie GoasmatFRAWest-North08:33:20  +  00:04:16=33,779 
3232 FRAPaul PineauFRACenter-South West08:33:20  +  00:04:16=33,779 
3333 FRAPierre CoganFRAWest-North08:33:20  +  00:04:16=33,779 
3434 ITAGiuseppe TaccaFRAIle De France08:33:20  +  00:04:16=33,779 
3535 FRAGeorges RamouluxFRACenter-South West08:33:20  +  00:04:16=33,779 
3636 ITAArmando PeverelliITACadetti Italiens08:33:20  +  00:04:16=33,779 
3737 ITASylvio PedroniITACadetti Italiens08:33:20  +  00:04:16=33,779 
3838 ITAGino BartaliITAItaly08:33:20  +  00:04:16=33,779 
3939 BELFlorent MathieuBELBelgium08:33:20  +  00:04:16=33,779 
4040 BELMarcel KintBELBelgium08:33:20  +  00:04:16=33,779 
4141 BELDésiré KeteleerBELBelgium08:33:20  +  00:04:16=33,779 
4242 ITALuciano PezziITAItaly08:33:20  +  00:04:16=33,779 
4343 ITABruno PasquiniITAItaly08:33:20  +  00:04:16=33,779 
4444 ITAEttore MilanoITAItaly08:33:20  +  00:04:16=33,779 
4545 ITAFausto CoppiITAItaly08:33:20  +  00:04:16=33,779 
4646 ITASerifano BiagioniITAItaly08:33:20  +  00:04:16=33,779 
4747 BELBriek SchotteBELBelgium08:33:20  +  00:04:16=33,779 
4848 ITAVittorio MagniITACadetti Italiens08:33:20  +  00:04:16=33,779 
4949 LUXJean GoldschmitLUXLuxembourg08:33:20  +  00:04:16=33,779 
5050 FRARené ViettoFRAFrance08:33:20  +  00:04:16=33,779 
5151 FRALucien LazaridesFRAFrance08:33:20  +  00:04:16=33,779 
5252 FRAJean-Apotre LazaridesFRAFrance08:33:20  +  00:04:16=33,779 
5353 FRARaphaël GeminianiFRAFrance08:33:20  +  00:04:16=33,779 
5454 LUXJean KirchenLUXLuxembourg08:33:20  +  00:04:16=33,779 
5555 FRALouis DeprezFRAFrance08:33:20  +  00:04:16=33,779 
5656 ITAAlfredo MartiniITACadetti Italiens08:33:20  +  00:04:16=33,779 
5757 SUIPierre BrambillaFRASouth-East08:33:40  +  00:04:36=33,757 
5858 SUIGottfried WeilenmannCHESwitzerland08:35:48  +  00:06:44=33,618 
5959 ITAGino SciardisITAItaly08:35:48  +  00:06:44=33,618 
6060 FRARoger Le NizerhyFRAWest-North08:39:03  +  00:09:59=33,407 
6161 FRAJean BlancFRACenter-South West08:39:03  +  00:09:59=33,407 
6262 ITAMario RicciITAItaly08:40:46  +  00:11:42=33,297 
6363 FRARobert ChapatteFRAFrance08:41:09  +  00:12:05=33,273 
6464 GERCésar MarcelakFRAWest-North08:42:55  +  00:13:51=33,160 
6565 ITAGiovanni CorrieriITAItaly08:43:02  +  00:13:58=33,153 
6666 ITAAngelo BrignoleITAItaly08:43:02  +  00:13:58=33,153 
6767 ITAGuido De SantiITAItaly08:43:02  +  00:13:58=33,153 
6868 ITAVincenzo RosselloITAItaly08:43:02  +  00:13:58=33,153 

Withdrawls: 1
 
Rider
Team
Reason
99  FRARobert DesbatsFRACenter-South WestDid not finish
Todays birthdays.

1874  Achille Colas
1895  Lucien Meunier
1902  Lazare Venot
1915  Albert Gijsen
1924  Marcel Zelasco
1930  Juan Campillo
1931  Jean-Claude Skerl
1934  Jean Selic
1935  Arnaldo Pambianco
1955  Mario Beccia
1956  Daniel Willems
1957  Dominique Sanders
1959  Marc Sergeant
1960  Éric Caritoux
1963  Jelle Nijdam
1971  Arnaud Prétot
1980  Piet Rooijakkers